Time,TemperatureF,DewpointF,PressureIn,WindDirection,WindDirectionDegrees,WindSpeedMPH,WindSpeedGustMPH,Humidity,HourlyPrecipIn,Conditions,Clouds,dailyrainin,SoftwareType,DateUTC
2013-10-08 00:00:00,53.3,41.4,29.82,NNW,332,6.0,9.0,64,0.00,,,0.45,Wunderground v.1.13,2013-10-08 04:00:00,
2013-10-08 00:30:00,52.6,41.6,29.85,NW,313,4.0,4.0,66,0.00,,,0.45,Wunderground v.1.13,2013-10-08 04:30:00,
2013-10-08 01:00:00,52.0,41.4,29.87,West,271,3.0,4.0,67,0.00,,,0.45,Wunderground v.1.13,2013-10-08 05:00:00,
2013-10-08 01:30:00,51.4,41.2,29.90,SW,217,4.0,4.0,68,0.00,,,0.45,Wunderground v.1.13,2013-10-08 05:30:00,
2013-10-08 02:00:00,51.1,40.9,29.92,West,262,3.0,3.0,68,0.00,,,0.45,Wunderground v.1.13,2013-10-08 06:00:00,
2013-10-08 02:30:00,50.5,41.4,29.93,NW,326,3.0,3.0,71,0.00,,,0.45,Wunderground v.1.13,2013-10-08 06:30:00,
2013-10-08 03:00:00,49.2,41.6,29.95,NW,325,2.0,2.0,75,0.00,,,0.45,Wunderground v.1.13,2013-10-08 07:00:00,
2013-10-08 03:30:00,48.6,40.3,29.96,WSW,253,2.0,2.0,73,0.00,,,0.45,Wunderground v.1.13,2013-10-08 07:30:00,
2013-10-08 04:00:00,48.2,39.2,29.99,WSW,256,2.0,4.0,71,0.00,,,0.45,Wunderground v.1.13,2013-10-08 08:00:00,
2013-10-08 04:30:00,48.0,38.3,30.01,WNW,300,4.0,4.0,69,0.00,,,0.45,Wunderground v.1.13,2013-10-08 08:30:00,
2013-10-08 05:00:00,47.7,38.8,30.03,WSW,255,1.0,1.0,71,0.00,,,0.45,Wunderground v.1.13,2013-10-08 09:00:00,
2013-10-08 05:30:00,47.1,40.3,30.04,WSW,255,1.0,4.0,77,0.00,,,0.45,Wunderground v.1.13,2013-10-08 09:30:00,
2013-10-08 06:00:00,45.5,39.7,30.06,WSW,254,1.0,4.0,80,0.00,,,0.45,Wunderground v.1.13,2013-10-08 10:00:00,
2013-10-08 06:30:00,44.3,39.5,30.08,WSW,254,1.0,2.0,83,0.00,,,0.45,Wunderground v.1.13,2013-10-08 10:30:00,
2013-10-08 07:00:00,43.8,39.3,30.09,WSW,254,2.0,2.0,84,0.00,,,0.45,Wunderground v.1.13,2013-10-08 11:00:00,
2013-10-08 07:30:00,42.9,38.7,30.10,WSW,254,2.0,4.0,85,0.00,,,0.45,Wunderground v.1.13,2013-10-08 11:30:00,
2013-10-08 08:00:00,43.5,39.6,30.13,WSW,254,2.0,2.0,86,0.00,,,0.45,Wunderground v.1.13,2013-10-08 12:00:00,
2013-10-08 08:30:00,44.9,40.0,30.15,WSW,254,2.0,5.0,83,0.00,,,0.45,Wunderground v.1.13,2013-10-08 12:30:00,
2013-10-08 09:00:00,47.0,40.8,30.17,SW,224,2.0,5.0,79,0.00,,,0.45,Wunderground v.1.13,2013-10-08 13:00:00,
2013-10-08 09:30:00,49.8,40.4,30.18,West,262,3.0,3.0,70,0.00,,,0.45,Wunderground v.1.13,2013-10-08 13:30:00,
2013-10-08 10:00:00,51.0,40.0,30.19,NW,318,2.0,4.0,66,0.00,,,0.45,Wunderground v.1.13,2013-10-08 14:00:00,
2013-10-08 10:30:00,51.9,39.3,30.20,SW,236,2.0,5.0,62,0.00,,,0.45,Wunderground v.1.13,2013-10-08 14:30:00,
2013-10-08 11:00:00,53.2,39.2,30.21,WNW,284,2.0,5.0,59,0.00,,,0.45,Wunderground v.1.13,2013-10-08 15:00:00,
2013-10-08 11:30:00,53.5,39.9,30.22,SW,224,3.0,6.0,60,0.00,,,0.45,Wunderground v.1.13,2013-10-08 15:30:00,
2013-10-08 12:30:00,56.5,40.0,30.22,West,279,3.0,4.0,54,0.00,,,0.45,Wunderground v.1.13,2013-10-08 16:30:00,
2013-10-08 13:00:00,57.2,38.7,30.22,WSW,254,3.0,3.0,50,0.00,,,0.00,Wunderground v.1.13,2013-10-08 17:00:00,
2013-10-08 13:30:00,58.3,37.6,30.22,West,274,2.0,2.0,46,0.00,,,0.00,Wunderground v.1.13,2013-10-08 17:30:00,
2013-10-08 14:00:00,59.2,36.1,30.21,SW,236,4.0,4.0,42,0.00,,,0.00,Wunderground v.1.13,2013-10-08 18:00:00,
2013-10-08 14:30:00,59.8,36.6,30.21,West,267,3.0,3.0,42,0.00,,,0.00,Wunderground v.1.13,2013-10-08 18:30:00,
2013-10-08 15:00:00,60.2,37.0,30.22,WSW,238,2.0,4.0,42,0.00,,,0.00,Wunderground v.1.13,2013-10-08 19:00:00,
2013-10-08 15:30:00,60.4,37.8,30.22,WSW,245,2.0,2.0,43,0.00,,,0.00,Wunderground v.1.13,2013-10-08 19:30:00,
2013-10-08 16:00:00,60.2,38.2,30.22,SW,219,3.0,5.0,44,0.00,,,0.00,Wunderground v.1.13,2013-10-08 20:00:00,
2013-10-08 16:30:00,60.9,37.6,30.22,West,279,2.0,2.0,42,0.00,,,0.00,Wunderground v.1.13,2013-10-08 20:30:00,
2013-10-08 17:00:00,60.9,37.0,30.23,WSW,249,2.0,2.0,41,0.00,,,0.00,Wunderground v.1.13,2013-10-08 21:00:00,
2013-10-08 17:30:00,59.8,37.2,30.24,SW,224,2.0,2.0,43,0.00,,,0.00,Wunderground v.1.13,2013-10-08 21:30:00,
2013-10-08 18:00:00,58.3,38.1,30.24,SW,217,0.0,2.0,47,0.00,,,0.00,Wunderground v.1.13,2013-10-08 22:00:00,
2013-10-08 18:30:00,55.6,39.7,30.25,SW,217,0.0,2.0,55,0.00,,,0.00,Wunderground v.1.13,2013-10-08 22:30:00,
2013-10-08 19:00:00,52.2,41.2,30.26,SW,217,0.0,2.0,66,0.00,,,0.00,Wunderground v.1.13,2013-10-08 23:00:00,
2013-10-08 19:30:00,49.9,42.6,30.27,SW,217,0.0,2.0,76,0.00,,,0.00,Wunderground v.1.13,2013-10-08 23:30:00,
2013-10-08 20:00:00,48.5,42.0,30.27,SW,217,0.0,2.0,78,0.00,,,0.00,Wunderground v.1.13,2013-10-09 00:00:00,
2013-10-08 20:30:00,46.5,40.3,30.28,SW,217,0.0,2.0,79,0.00,,,0.00,Wunderground v.1.13,2013-10-09 00:30:00,
2013-10-08 21:00:00,45.5,40.6,30.29,SW,217,0.0,2.0,83,0.00,,,0.00,Wunderground v.1.13,2013-10-09 01:00:00,
2013-10-08 21:30:00,44.8,40.3,30.29,SW,217,0.0,2.0,84,0.00,,,0.00,Wunderground v.1.13,2013-10-09 01:30:00,
2013-10-08 22:00:00,43.9,40.0,30.30,SW,217,0.0,2.0,86,0.00,,,0.00,Wunderground v.1.13,2013-10-09 02:00:00,
2013-10-08 22:30:00,43.3,40.0,30.30,SW,217,0.0,2.0,88,0.00,,,0.00,Wunderground v.1.13,2013-10-09 02:30:00,
2013-10-08 23:00:00,42.5,39.5,30.29,SW,217,0.0,2.0,89,0.00,,,0.00,Wunderground v.1.13,2013-10-09 03:00:00,
2013-10-08 23:30:00,42.1,39.4,30.29,SW,217,0.0,2.0,90,0.00,,,0.00,Wunderground v.1.13,2013-10-09 03:30:00,